createdAt,value
2019-05-18T00:07:48.639Z,2.80
2019-05-18T00:17:50.061Z,3.10
2019-05-18T00:27:52.828Z,3.17
2019-05-18T00:37:54.354Z,3.63
2019-05-18T00:47:55.799Z,3.90
2019-05-18T00:57:57.357Z,4.07
2019-05-18T01:07:59.119Z,3.90
2019-05-18T01:18:02.265Z,5.00
2019-05-18T01:28:04.035Z,3.90
2019-05-18T01:38:05.715Z,4.10
2019-05-18T01:48:13.876Z,4.20
2019-05-18T01:58:10.483Z,4.50
2019-05-18T02:08:11.937Z,4.77
2019-05-18T02:18:26.891Z,5.17
2019-05-18T02:28:16.737Z,4.67
2019-05-18T02:38:19.292Z,4.47
2019-05-18T02:48:20.724Z,4.73
2019-05-18T02:58:22.268Z,5.07
2019-05-18T03:08:23.791Z,5.13
2019-05-18T03:18:25.432Z,5.73
2019-05-18T03:28:26.878Z,4.73
2019-05-18T03:38:28.303Z,5.20
2019-05-18T03:48:29.731Z,5.47
2019-05-18T03:58:31.204Z,6.33
2019-05-18T04:08:32.669Z,6.63
2019-05-18T04:18:34.094Z,6.53
2019-05-18T04:28:36.656Z,7.13
2019-05-18T04:38:39.168Z,6.83
2019-05-18T04:48:40.610Z,6.93
2019-05-18T04:58:42.072Z,9.83
2019-05-18T05:08:46.216Z,7.23
2019-05-18T05:18:49.227Z,7.47
2019-05-18T05:28:50.883Z,6.87
2019-05-18T05:38:52.389Z,7.10
2019-05-18T05:48:53.869Z,7.40
2019-05-18T05:58:55.292Z,7.20
2019-05-18T06:08:56.724Z,7.70
2019-05-18T06:18:58.184Z,8.00
2019-05-18T06:28:59.730Z,7.83
2019-05-18T06:39:01.343Z,7.80
2019-05-18T06:49:04.601Z,8.20
2019-05-18T06:59:06.276Z,7.87
2019-05-18T07:09:13.772Z,7.50
2019-05-18T07:19:11.618Z,5.90
2019-05-18T07:29:13.251Z,5.80
2019-05-18T07:39:16.588Z,4.67
2019-05-18T07:49:18.018Z,4.58
2019-05-18T07:59:20.006Z,3.58
2019-05-18T08:09:21.563Z,3.67
2019-05-18T08:19:23.152Z,3.55
2019-05-18T08:29:26.735Z,3.62
2019-05-18T08:39:28.383Z,3.20
2019-05-18T08:49:29.935Z,3.10
2019-05-18T08:59:31.587Z,3.70
2019-05-18T09:09:33.198Z,2.85
2019-05-18T09:19:34.731Z,2.90
2019-05-18T09:29:36.258Z,2.62
2019-05-18T09:39:37.819Z,2.30
2019-05-18T09:49:39.296Z,2.55
2019-05-18T09:59:40.749Z,2.70
2019-05-18T10:09:42.236Z,2.40
2019-05-18T10:19:43.677Z,2.90
2019-05-18T10:29:46.727Z,2.90
2019-05-18T10:39:48.477Z,3.20
2019-05-18T10:49:49.948Z,3.08
2019-05-18T10:59:51.382Z,3.10
2019-05-18T11:09:52.878Z,2.57
2019-05-18T11:19:57.357Z,2.90
2019-05-18T11:29:58.929Z,3.12
2019-05-18T11:40:00.585Z,3.02
2019-05-18T11:50:05.872Z,3.22
2019-05-18T12:00:11.336Z,4.03
2019-05-18T12:10:14.099Z,3.77
2019-05-18T12:20:17.656Z,3.80
2019-05-18T12:30:19.536Z,4.27
2019-05-18T12:40:22.010Z,4.30
2019-05-18T12:50:25.265Z,3.60
2019-05-18T13:00:27.883Z,4.03
2019-05-18T13:10:31.423Z,3.17
2019-05-18T13:20:33.043Z,4.40
2019-05-18T13:30:36.523Z,3.40
2019-05-18T13:40:38.239Z,3.83
2019-05-18T13:50:44.905Z,3.87
2019-05-18T14:00:49.322Z,3.77
2019-05-18T14:10:55.899Z,4.50
2019-05-18T14:20:59.268Z,3.90
2019-05-18T14:31:02.112Z,3.57
2019-05-18T14:41:03.867Z,4.07
2019-05-18T14:51:05.395Z,4.17
2019-05-18T15:01:07.816Z,3.90
2019-05-18T15:11:09.446Z,3.33
2019-05-18T15:21:10.894Z,3.60
2019-05-18T15:31:12.574Z,3.03
2019-05-18T15:41:16.036Z,3.13
2019-05-18T15:51:17.607Z,2.63
2019-05-18T16:01:19.083Z,2.43
2019-05-18T16:11:20.712Z,2.30
2019-05-18T16:21:23.915Z,2.70
2019-05-18T16:31:25.575Z,2.40
2019-05-18T16:41:27.102Z,2.00
2019-05-18T16:51:28.591Z,2.70
2019-05-18T17:01:30.236Z,1.90
2019-05-18T17:11:31.776Z,2.63
2019-05-18T17:21:33.266Z,2.13
2019-05-18T17:31:34.807Z,2.87
2019-05-18T17:41:36.246Z,2.80
2019-05-18T17:51:37.704Z,4.00
2019-05-18T18:01:39.243Z,3.43
2019-05-18T18:11:40.922Z,3.50
2019-05-18T18:21:42.483Z,3.73
2019-05-18T18:31:45.898Z,4.07
2019-05-18T18:41:47.481Z,4.00
2019-05-18T18:51:50.955Z,3.60
2019-05-18T19:01:55.882Z,3.97
2019-05-18T19:11:59.327Z,5.00
2019-05-18T19:22:01.071Z,5.63
2019-05-18T19:32:02.631Z,5.23
2019-05-18T19:42:04.276Z,4.60
2019-05-18T19:52:05.870Z,3.10
2019-05-18T20:02:07.319Z,2.53
2019-05-18T20:12:08.962Z,3.00
2019-05-18T20:22:10.445Z,5.47
2019-05-18T20:32:11.926Z,6.23
2019-05-18T20:42:13.348Z,4.90
2019-05-18T20:52:15.066Z,4.70
2019-05-18T21:02:16.729Z,4.70
2019-05-18T21:12:18.496Z,4.77
2019-05-18T21:22:19.975Z,4.50
2019-05-18T21:32:21.529Z,4.97
2019-05-18T21:42:23.076Z,4.90
2019-05-18T21:52:24.645Z,5.20
2019-05-18T22:02:26.178Z,5.83
2019-05-18T22:12:27.713Z,5.37
2019-05-18T22:22:29.278Z,5.47
2019-05-18T22:32:30.842Z,5.23
2019-05-18T22:42:32.277Z,5.53
2019-05-18T22:52:33.931Z,6.17
2019-05-18T23:02:35.575Z,6.47
2019-05-18T23:12:37.038Z,6.07
2019-05-18T23:22:38.517Z,5.80
2019-05-18T23:32:40.036Z,6.97
2019-05-18T23:42:41.584Z,6.50
2019-05-18T23:52:43.027Z,6.80
